Courageous — WBC5659 — position and weather

sailwx.info

Track history (hours):
 
Tides and Currents Weather Stations Pressure Air Temp Water Temp Dewpoint Dewpoint Depression Visibility Wind Speed Wind Dir Waves Ship Positions

Courageous

Last reported at 2014-Sep-12 09:10 UTC. Time now 2014-Oct-31 07:06 UTC.
Position N 47°40' W 122°24'.
Warning: this ship's position is 48 days out of date.

Length 54 m; draft 6 m.

Type: Ship (hazmat cat B). MMSI: 368499000.

Date/timePositionNaut miles runAvg speedWind from/ knotsBaromVisibWave heightAir tempDewpointWater temp
2014-Sep-12 09:10N 47°40' W 122°24'0 0.1
2014-Sep-12 08:33N 47°40' W 122°24'1 0.8
2014-Sep-12 07:33N 47°39' W 122°23'0 0.0
2014-Sep-12 06:33N 47°39' W 122°23'0 0.0
2014-Sep-12 05:34N 47°39' W 122°23'0 0.0
2014-Sep-12 04:34N 47°39' W 122°23'0 0.0
2014-Sep-12 03:34N 47°39' W 122°23'0 0.0
2014-Sep-12 02:33N 47°39' W 122°23'0 0.0
2014-Sep-12 01:33N 47°39' W 122°23'0 0.0
2014-Sep-12 00:33N 47°39' W 122°23'0 0.0
2014-Sep-11 23:33N 47°39' W 122°23'0 0.0
2014-Sep-11 22:34N 47°39' W 122°23'0 0.0
2014-Sep-11 21:34N 47°39' W 122°23'0 0.0
2014-Sep-11 20:34N 47°39' W 122°23'0 0.0
2014-Sep-11 19:34N 47°39' W 122°23'0 0.0
2014-Sep-11 18:34N 47°39' W 122°23'0 0.0
2014-Sep-11 17:33N 47°39' W 122°23'0 0.0
2014-Sep-11 16:34N 47°39' W 122°23'0 0.0
2014-Sep-11 15:33N 47°39' W 122°23'0 0.0
2014-Sep-11 14:33N 47°39' W 122°23'0 0.0
2014-Sep-11 13:33N 47°39' W 122°23'0 0.0
2014-Sep-11 12:34N 47°39' W 122°23'0 0.0
2014-Sep-11 11:34N 47°39' W 122°23'0 0.0
2014-Sep-11 10:33N 47°39' W 122°23'0 0.0
2014-Sep-11 09:33N 47°39' W 122°23'0 0.0
2014-Sep-11 08:33N 47°39' W 122°23'1 1.0
2014-Sep-11 07:33N 47°40' W 122°24'3 3.1
2014-Sep-11 06:33N 47°42' W 122°26'9 9.0
2014-Sep-11 05:34N 47°51' W 122°29'8 8.0
2014-Sep-11 04:31N 47°58' W 122°36'7 7.5
2014-Sep-11 03:32N 48°05' W 122°40'18 8.3
2014-Sep-11 01:20N 48°12' W 123°05'810.0
2014-Sep-11 00:34N 48°13' W 123°17'1010.4
2014-Sep-10 23:34N 48°13' W 123°32'2311.3
2014-Sep-10 21:33N 48°16' W 124°06'1110.7
2014-Sep-10 20:33N 48°21' W 124°21'1010.1
2014-Sep-10 19:34N 48°25' W 124°34'9 9.1
2014-Sep-10 18:33N 48°29' W 124°47'29 9.5
2014-Sep-10 15:31N 48°33' W 125°30'1010.0
2014-Sep-10 14:34N 48°38' W 125°43'1010.1
2014-Sep-10 13:33N 48°43' W 125°57'  
Track history (hours):
 
Tides and Currents Weather Stations Pressure Air Temp Water Temp Dewpoint Dewpoint Depression Visibility Wind Speed Wind Dir Waves Ship Positions

Courageous

Last reported at 2014-Sep-12 09:10 UTC. Time now 2014-Oct-31 07:06 UTC.
Position N 47°40' W 122°24'.
Warning: this ship's position is 48 days out of date.

Length 54 m; draft 6 m.

Type: Ship (hazmat cat B). MMSI: 368499000.

Date/timePositionNaut miles runAvg speedWind from/ knotsBaromVisibWave heightAir tempDewpointWater temp
2014-Sep-12 09:10N 47°40' W 122°24'0 0.1
2014-Sep-12 08:33N 47°40' W 122°24'1 0.8
2014-Sep-12 07:33N 47°39' W 122°23'0 0.0
2014-Sep-12 06:33N 47°39' W 122°23'0 0.0
2014-Sep-12 05:34N 47°39' W 122°23'0 0.0
2014-Sep-12 04:34N 47°39' W 122°23'0 0.0
2014-Sep-12 03:34N 47°39' W 122°23'0 0.0
2014-Sep-12 02:33N 47°39' W 122°23'0 0.0
2014-Sep-12 01:33N 47°39' W 122°23'0 0.0
2014-Sep-12 00:33N 47°39' W 122°23'0 0.0
2014-Sep-11 23:33N 47°39' W 122°23'0 0.0
2014-Sep-11 22:34N 47°39' W 122°23'0 0.0
2014-Sep-11 21:34N 47°39' W 122°23'0 0.0
2014-Sep-11 20:34N 47°39' W 122°23'0 0.0
2014-Sep-11 19:34N 47°39' W 122°23'0 0.0
2014-Sep-11 18:34N 47°39' W 122°23'0 0.0
2014-Sep-11 17:33N 47°39' W 122°23'0 0.0
2014-Sep-11 16:34N 47°39' W 122°23'0 0.0
2014-Sep-11 15:33N 47°39' W 122°23'0 0.0
2014-Sep-11 14:33N 47°39' W 122°23'0 0.0
2014-Sep-11 13:33N 47°39' W 122°23'0 0.0
2014-Sep-11 12:34N 47°39' W 122°23'0 0.0
2014-Sep-11 11:34N 47°39' W 122°23'0 0.0
2014-Sep-11 10:33N 47°39' W 122°23'0 0.0
2014-Sep-11 09:33N 47°39' W 122°23'0 0.0
2014-Sep-11 08:33N 47°39' W 122°23'1 1.0
2014-Sep-11 07:33N 47°40' W 122°24'3 3.1
2014-Sep-11 06:33N 47°42' W 122°26'9 9.0
2014-Sep-11 05:34N 47°51' W 122°29'8 8.0
2014-Sep-11 04:31N 47°58' W 122°36'7 7.5
2014-Sep-11 03:32N 48°05' W 122°40'18 8.3
2014-Sep-11 01:20N 48°12' W 123°05'810.0
2014-Sep-11 00:34N 48°13' W 123°17'1010.4
2014-Sep-10 23:34N 48°13' W 123°32'2311.3
2014-Sep-10 21:33N 48°16' W 124°06'1110.7
2014-Sep-10 20:33N 48°21' W 124°21'1010.1
2014-Sep-10 19:34N 48°25' W 124°34'9 9.1
2014-Sep-10 18:33N 48°29' W 124°47'29 9.5
2014-Sep-10 15:31N 48°33' W 125°30'1010.0
2014-Sep-10 14:34N 48°38' W 125°43'1010.1
2014-Sep-10 13:33N 48°43' W 125°57'  

Dump ship's entire track history